Time;durP1;ratioP1;P1;durP2;ratioP2;P2;SDS_P1;SDS_P2;PMS_P1;PMS_P2;Temp;Humidity;BMP_temperature;BMP_pressure;BME280_temperature;BME280_humidity;BME280_pressure;Samples;Min_cycle;Max_cycle;Signal;HPM_P1;HPM_P2
2021/04/14 00:03:28;;;;;;;14.75;11.25;;;;;;;1.09;100.00;97364.06;5015993;28;20088;-48
2021/04/14 00:05:55;;;;;;;14.02;9.93;;;;;;;1.03;100.00;97359.13;5027668;28;20068;-50
2021/04/14 00:08:23;;;;;;;13.05;10.43;;;;;;;0.87;100.00;97358.09;5025169;28;20062;-50
2021/04/14 00:10:51;;;;;;;15.80;11.05;;;;;;;1.14;100.00;97359.53;5029219;28;20075;-48
2021/04/14 00:13:22;;;;;;;13.23;10.15;;;;;;;1.27;100.00;97349.44;5027739;28;20057;-52
2021/04/14 00:15:54;;;;;;;16.58;11.23;;;;;;;1.27;100.00;97352.06;5031146;28;20095;-49
2021/04/14 00:18:21;;;;;;;12.75;10.38;;;;;;;1.47;100.00;97350.38;5025542;28;20084;-49
2021/04/14 00:20:49;;;;;;;12.27;10.02;;;;;;;1.33;100.00;97343.16;5020706;28;20077;-53
2021/04/14 00:23:19;;;;;;;11.38;9.45;;;;;;;1.42;100.00;97347.97;5019108;28;20535;-49
2021/04/14 00:25:49;;;;;;;12.85;9.98;;;;;;;1.42;100.00;97340.19;5021641;28;20065;-51
2021/04/14 00:28:19;;;;;;;13.90;10.48;;;;;;;1.51;100.00;97342.34;5020039;28;20078;-48
2021/04/14 00:30:47;;;;;;;;;;;;;;;1.39;100.00;97342.91;5025690;28;20090;-51
2021/04/14 00:33:15;;;;;;;13.35;9.95;;;;;;;1.38;100.00;97341.22;5027263;28;21360;-49
2021/04/14 00:35:43;;;;;;;14.00;9.75;;;;;;;1.25;100.00;97345.25;5020762;28;20470;-48
2021/04/14 00:38:12;;;;;;;12.98;10.48;;;;;;;1.21;100.00;97347.16;5030227;28;20065;-50
2021/04/14 00:40:42;;;;;;;15.23;10.23;;;;;;;1.29;100.00;97345.03;5034908;28;20076;-50
2021/04/14 00:43:12;;;;;;;15.85;10.75;;;;;;;1.21;100.00;97347.16;5026379;28;20188;-51
2021/04/14 00:45:41;;;;;;;16.08;11.20;;;;;;;1.31;100.00;97342.41;5020310;28;20085;-48
2021/04/14 00:48:10;;;;;;;15.20;11.05;;;;;;;1.46;100.00;97340.88;5034379;28;20526;-52
2021/04/14 00:50:39;;;;;;;13.60;10.82;;;;;;;1.45;100.00;97342.66;5023677;28;20072;-52
2021/04/14 00:53:06;;;;;;;13.65;9.98;;;;;;;1.24;100.00;97348.75;5035262;28;20065;-54
2021/04/14 00:55:35;;;;;;;13.98;11.05;;;;;;;1.06;100.00;97343.41;5027718;28;20490;-50
2021/04/14 00:58:05;;;;;;;17.75;11.02;;;;;;;1.29;100.00;97339.84;5028312;28;20126;-48
2021/04/14 01:00:36;;;;;;;13.93;11.02;;;;;;;1.18;100.00;97337.72;5037959;28;20081;-53
2021/04/14 01:03:07;;;;;;;11.60;10.10;;;;;;;1.07;100.00;97337.34;5026695;28;20072;-52
2021/04/14 01:05:37;;;;;;;12.23;9.60;;;;;;;1.09;100.00;97343.28;5026795;28;20067;-50
2021/04/14 01:08:05;;;;;;;11.95;9.65;;;;;;;1.10;100.00;97337.22;5035016;28;20434;-51
2021/04/14 01:10:33;;;;;;;15.32;9.82;;;;;;;1.23;100.00;97336.66;5025091;28;20171;-55
2021/04/14 01:13:01;;;;;;;13.60;9.75;;;;;;;1.05;100.00;97343.50;5018950;28;20076;-55
2021/04/14 01:15:31;;;;;;;11.40;9.63;;;;;;;1.26;100.00;97327.00;5034498;28;20123;-49
2021/04/14 01:17:58;;;;;;;12.88;10.02;;;;;;;1.46;100.00;97320.94;5039818;28;20065;-51
2021/04/14 01:20:28;;;;;;;10.88;9.65;;;;;;;1.25;100.00;97327.91;5047152;28;20632;-48
2021/04/14 01:22:56;;;;;;;11.45;9.05;;;;;;;1.57;100.00;97323.91;5026527;28;20083;-55
2021/04/14 01:25:29;;;;;;;11.52;9.90;;;;;;;1.44;100.00;97325.34;5032032;28;20524;-49
2021/04/14 01:27:56;;;;;;;11.43;8.82;;;;;;;1.71;100.00;97314.63;5030752;28;20771;-52
2021/04/14 01:30:27;;;;;;;10.85;8.68;;;;;;;1.62;100.00;97315.91;5027417;28;20472;-52
2021/04/14 01:32:55;;;;;;;11.15;9.52;;;;;;;1.36;100.00;97322.25;5023155;28;20065;-53
2021/04/14 01:35:25;;;;;;;9.65;8.57;;;;;;;1.39;100.00;97322.97;5034622;28;20068;-51
2021/04/14 01:37:53;;;;;;;11.82;8.93;;;;;;;1.47;100.00;97321.78;5026247;28;20060;-49
2021/04/14 01:40:23;;;;;;;11.73;8.40;;;;;;;1.40;100.00;97322.03;5035398;28;20064;-52
2021/04/14 01:42:51;;;;;;;9.65;7.85;;;;;;;1.35;100.00;97320.56;5024295;28;20080;-51
2021/04/14 01:45:25;;;;;;;11.98;8.73;;;;;;;1.35;100.00;97334.41;5027255;28;20080;-55
2021/04/14 01:47:52;;;;;;;11.82;8.48;;;;;;;1.29;100.00;97324.25;5028686;28;20065;-50
2021/04/14 01:50:20;;;;;;;12.15;8.85;;;;;;;1.33;100.00;97331.00;5035559;28;20523;-50
2021/04/14 01:52:47;;;;;;;10.80;8.45;;;;;;;1.11;100.00;97323.31;5021816;28;20168;-49
2021/04/14 01:55:15;;;;;;;11.10;9.27;;;;;;;1.27;100.00;97325.22;5027108;28;20069;-47
2021/04/14 01:57:45;;;;;;;11.07;8.30;;;;;;;1.33;100.00;97322.38;5035809;28;20080;-54
2021/04/14 02:00:18;;;;;;;11.13;8.55;;;;;;;1.33;100.00;97324.97;5028257;28;20519;-52
2021/04/14 02:02:46;;;;;;;12.43;9.45;;;;;;;1.33;100.00;97319.78;5036737;28;20547;-55
2021/04/14 02:05:14;;;;;;;11.93;8.52;;;;;;;1.33;100.00;97317.19;5030547;28;20069;-53
2021/04/14 02:07:41;;;;;;;11.18;8.55;;;;;;;1.33;100.00;97315.41;5026359;28;20085;-54
2021/04/14 02:10:10;;;;;;;13.38;9.02;;;;;;;1.22;100.00;97316.81;5033226;28;20535;-55
2021/04/14 02:12:37;;;;;;;10.80;9.65;;;;;;;1.10;100.00;97310.38;5038839;28;20523;-51
2021/04/14 02:15:08;;;;;;;15.10;10.55;;;;;;;1.33;100.00;97315.41;5025597;28;20091;-50
2021/04/14 02:17:35;;;;;;;;;;;;;;;1.28;100.00;97316.56;5030182;28;20071;-53
2021/04/14 02:20:04;;;;;;;11.63;9.23;;;;;;;1.17;100.00;97311.78;5032903;28;19960;-52
2021/04/14 02:22:31;;;;;;;11.77;8.95;;;;;;;1.05;100.00;97318.38;5025912;28;20069;-53
2021/04/14 02:24:59;;;;;;;11.02;8.30;;;;;;;1.06;100.00;97317.44;5035582;28;20081;-49
2021/04/14 02:27:26;;;;;;;11.35;8.75;;;;;;;1.10;100.00;97308.63;5031309;28;20096;-52
2021/04/14 02:29:54;;;;;;;11.75;8.77;;;;;;;1.03;100.00;97321.94;5027601;28;20065;-51
2021/04/14 02:32:22;;;;;;;12.68;9.18;;;;;;;0.98;100.00;97322.13;5030773;28;20061;-53
2021/04/14 02:34:50;;;;;;;13.77;8.95;;;;;;;1.10;100.00;97306.03;5028689;28;20531;-49
2021/04/14 02:37:18;;;;;;;13.48;9.35;;;;;;;0.98;100.00;97309.16;5028822;28;20069;-49
2021/04/14 02:39:45;;;;;;;12.25;9.60;;;;;;;1.03;100.00;97309.78;5027976;28;20192;-53
2021/04/14 02:42:13;;;;;;;13.80;9.13;;;;;;;1.07;100.00;97313.97;5016800;28;21439;-51
2021/04/14 02:44:40;;;;;;;11.80;8.77;;;;;;;1.15;100.00;97311.03;5018632;28;20073;-55
2021/04/14 02:47:08;;;;;;;10.65;8.63;;;;;;;0.84;100.00;97306.28;5030439;28;20068;-51
2021/04/14 02:49:36;;;;;;;12.00;8.40;;;;;;;0.69;100.00;97305.19;5026660;28;20482;-53
2021/04/14 02:52:05;;;;;;;12.23;9.30;;;;;;;0.80;100.00;97307.34;5028520;28;20751;-55
2021/04/14 02:54:32;;;;;;;12.63;9.32;;;;;;;0.79;100.00;97311.69;5029545;28;20079;-50
2021/04/14 02:57:00;;;;;;;13.45;9.15;;;;;;;0.68;100.00;97304.31;5022240;28;20516;-53
2021/04/14 02:59:28;;;;;;;12.70;9.23;;;;;;;0.80;100.00;97297.78;5028456;28;20104;-53
2021/04/14 03:01:55;;;;;;;13.82;8.48;;;;;;;0.87;100.00;97303.56;5028514;28;20072;-56
2021/04/14 03:04:23;;;;;;;13.48;8.70;;;;;;;0.69;100.00;97303.44;5025446;28;20068;-50
2021/04/14 03:06:51;;;;;;;10.82;8.60;;;;;;;0.68;100.00;97300.88;5025248;28;20077;-47
2021/04/14 03:09:18;;;;;;;10.68;8.48;;;;;;;0.77;100.00;97305.69;5035447;28;20100;-52
2021/04/14 03:11:46;;;;;;;10.10;9.00;;;;;;;0.73;100.00;97296.34;5023628;28;20065;-53
2021/04/14 03:14:13;;;;;;;9.35;8.30;;;;;;;0.73;100.00;97298.94;5035459;28;20100;-49
2021/04/14 03:16:41;;;;;;;10.10;8.48;;;;;;;0.63;100.00;97298.47;5025901;28;20071;-49
2021/04/14 03:19:09;;;;;;;11.57;8.50;;;;;;;0.56;100.00;97302.25;5024815;28;20057;-53
2021/04/14 03:21:37;;;;;;;10.05;8.38;;;;;;;0.61;100.00;97292.50;5031148;28;20065;-49
2021/04/14 03:24:07;;;;;;;10.45;8.43;;;;;;;0.59;100.00;97302.13;5027027;28;20392;-50
2021/04/14 03:26:34;;;;;;;11.07;9.07;;;;;;;0.66;100.00;97298.34;5027001;28;20080;-48
2021/04/14 03:29:02;;;;;;;10.48;8.70;;;;;;;0.64;100.00;97300.16;5031042;28;20499;-52
2021/04/14 03:31:29;;;;;;;13.32;9.07;;;;;;;0.49;100.00;97298.22;5025972;28;20519;-46
2021/04/14 03:34:38;;;;;;;13.98;9.27;;;;;;;0.41;100.00;97297.66;5028089;28;20402;-53
2021/04/14 03:37:06;;;;;;;13.32;8.48;;;;;;;0.23;100.00;97292.28;5022747;28;20457;-51
2021/04/14 03:39:34;;;;;;;10.73;9.02;;;;;;;0.33;100.00;97294.53;5030209;28;20546;-46
2021/04/14 03:42:02;;;;;;;11.57;8.93;;;;;;;0.40;100.00;97296.81;5025546;28;20065;-47
2021/04/14 03:44:33;;;;;;;10.38;8.30;;;;;;;0.32;100.00;97290.25;5038328;28;20069;-55
2021/04/14 03:47:01;;;;;;;13.25;8.40;;;;;;;0.38;100.00;97296.03;5022808;28;20088;-48
2021/04/14 03:49:29;;;;;;;13.30;8.95;;;;;;;0.31;100.00;97292.00;5022913;28;20061;-49
2021/04/14 03:51:56;;;;;;;12.32;8.32;;;;;;;0.20;100.00;97292.41;5028218;28;20092;-50
2021/04/14 03:54:24;;;;;;;13.68;8.43;;;;;;;0.13;100.00;97287.53;5031995;28;20090;-50
2021/04/14 03:56:52;;;;;;;9.80;8.43;;;;;;;0.08;100.00;97289.47;5020252;28;20069;-48
2021/04/14 03:59:19;;;;;;;11.80;9.18;;;;;;;0.04;100.00;97288.75;5033340;28;20069;-52
2021/04/14 04:01:47;;;;;;;10.02;8.73;;;;;;;0.10;100.00;97291.09;5028382;28;20072;-50
2021/04/14 04:04:15;;;;;;;12.55;9.55;;;;;;;0.13;100.00;97284.94;5026637;28;20072;-49
2021/04/14 04:06:42;;;;;;;13.75;9.05;;;;;;;0.16;100.00;97290.00;5040331;28;20440;-48
2021/04/14 04:09:11;;;;;;;10.85;8.40;;;;;;;0.15;100.00;97285.72;5016039;28;20073;-51
2021/04/14 04:11:38;;;;;;;12.13;9.00;;;;;;;0.20;100.00;97284.63;5017959;28;20065;-51
2021/04/14 04:14:06;;;;;;;10.63;8.45;;;;;;;0.04;100.00;97288.75;5026211;28;20058;-48
2021/04/14 04:16:34;;;;;;;10.05;7.90;;;;;;;0.17;100.00;97291.69;5020084;28;20081;-51
2021/04/14 04:19:01;;;;;;;16.13;8.60;;;;;;;0.15;100.00;97299.53;5023191;28;20085;-47
2021/04/14 04:21:29;;;;;;;10.70;8.73;;;;;;;0.29;100.00;97293.81;5033407;28;20171;-47
2021/04/14 04:23:56;;;;;;;12.15;9.18;;;;;;;0.20;100.00;97299.34;5023443;28;20077;-50
2021/04/14 04:26:24;;;;;;;10.27;8.38;;;;;;;0.30;100.00;97292.91;5037182;28;20073;-47
2021/04/14 04:28:51;;;;;;;14.57;8.93;;;;;;;0.30;100.00;97294.66;5025128;28;20071;-47
2021/04/14 04:31:20;;;;;;;9.65;8.65;;;;;;;0.34;100.00;97291.84;5027162;28;20080;-49
2021/04/14 04:33:47;;;;;;;10.57;8.00;;;;;;;0.16;100.00;97290.84;5025806;28;20085;-47
2021/04/14 04:36:15;;;;;;;11.30;8.73;;;;;;;0.17;100.00;97297.75;5025565;28;20091;-46
2021/04/14 04:38:42;;;;;;;12.98;8.60;;;;;;;0.21;100.00;97290.69;5025728;28;20065;-50
2021/04/14 04:41:10;;;;;;;12.30;8.82;;;;;;;0.21;100.00;97288.09;5027189;28;20065;-53
2021/04/14 04:43:37;;;;;;;13.40;8.93;;;;;;;0.25;100.00;97292.25;5016106;28;20068;-47
2021/04/14 04:46:05;;;;;;;11.38;8.27;;;;;;;0.10;100.00;97291.09;5024914;28;20520;-45
2021/04/14 04:48:33;;;;;;;11.15;8.25;;;;;;;0.06;100.00;97289.53;5045834;28;20084;-45
2021/04/14 04:51:01;;;;;;;10.00;8.23;;;;;;;0.20;100.00;97289.81;5025668;28;20072;-49
2021/04/14 04:53:29;;;;;;;11.50;8.07;;;;;;;0.38;100.00;97288.25;5029035;28;20045;-49
2021/04/14 04:56:00;;;;;;;11.68;8.77;;;;;;;0.21;100.00;97290.69;5034689;28;20056;-48
2021/04/14 04:58:28;;;;;;;10.88;8.55;;;;;;;0.36;100.00;97286.63;5026755;28;20483;-46
2021/04/14 05:00:55;;;;;;;9.07;8.02;;;;;;;1.03;100.00;97293.34;5027637;28;20475;-48
2021/04/14 05:03:26;;;;;;;11.38;8.10;;;;;;;2.19;100.00;97284.69;5044257;28;20088;-47
2021/04/14 05:05:56;;;;;;;8.35;7.18;;;;;;;2.54;100.00;97293.38;5024963;28;20467;-46
2021/04/14 05:08:23;;;;;;;8.63;7.72;;;;;;;2.84;100.00;97286.66;5041143;28;20507;-48
2021/04/14 05:10:53;;;;;;;10.77;7.15;;;;;;;3.26;100.00;97289.78;5027280;28;20068;-47
2021/04/14 05:13:21;;;;;;;9.38;6.70;;;;;;;4.38;100.00;97287.22;5025165;28;20088;-51
2021/04/14 05:15:48;;;;;;;9.70;7.03;;;;;;;4.00;100.00;97277.13;5031597;28;20487;-48
2021/04/14 05:18:16;;;;;;;9.95;6.82;;;;;;;4.89;100.00;97279.94;5044461;28;20081;-51
2021/04/14 05:20:43;;;;;;;8.00;6.45;;;;;;;4.94;97.35;97279.66;5023962;28;20072;-49
2021/04/14 05:23:12;;;;;;;8.05;6.95;;;;;;;4.86;97.92;97287.13;5033571;28;20065;-50
2021/04/14 05:25:44;;;;;;;10.85;6.90;;;;;;;3.75;100.00;97289.78;5032231;28;20472;-51
2021/04/14 05:28:14;;;;;;;9.65;6.25;;;;;;;3.67;100.00;97291.97;5023354;28;20062;-50
2021/04/14 05:30:42;;;;;;;9.27;7.65;;;;;;;2.88;100.00;97304.75;5027620;28;20111;-49
2021/04/14 05:33:10;;;;;;;9.32;7.32;;;;;;;3.07;100.00;97290.72;5028753;28;20512;-54
2021/04/14 05:35:38;;;;;;;10.02;7.22;;;;;;;2.64;100.00;97296.38;5026235;28;20072;-49
2021/04/14 05:38:06;;;;;;;8.70;7.47;;;;;;;2.22;100.00;97300.97;5036098;28;20431;-51
2021/04/14 05:40:35;;;;;;;10.25;7.43;;;;;;;2.31;100.00;97304.94;5039149;28;20088;-47
2021/04/14 05:43:11;;;;;;;10.20;7.50;;;;;;;2.41;100.00;97300.09;5024264;28;20527;-54
2021/04/14 05:45:39;;;;;;;8.13;7.07;;;;;;;2.38;100.00;97298.50;5031633;28;20080;-51
2021/04/14 05:48:07;;;;;;;8.48;7.40;;;;;;;2.34;100.00;97297.81;5026572;28;20072;-48
2021/04/14 05:50:34;;;;;;;11.40;7.82;;;;;;;1.92;100.00;97292.00;5030176;28;20080;-53
2021/04/14 05:53:02;;;;;;;9.13;7.68;;;;;;;1.97;100.00;97288.28;5034195;28;20065;-50
2021/04/14 05:55:29;;;;;;;11.82;8.30;;;;;;;1.81;100.00;97302.91;5038929;28;20061;-54
2021/04/14 05:57:58;;;;;;;9.38;7.88;;;;;;;2.12;100.00;97299.72;5025789;28;20065;-50
2021/04/14 06:00:26;;;;;;;13.07;8.27;;;;;;;2.47;100.00;97295.44;5042041;28;20089;-50
2021/04/14 06:02:53;;;;;;;11.50;8.65;;;;;;;2.71;100.00;97296.00;5031141;28;20057;-49
2021/04/14 06:05:23;;;;;;;13.02;8.77;;;;;;;2.71;100.00;97301.22;5030972;28;20104;-49
2021/04/14 06:07:50;;;;;;;11.40;8.88;;;;;;;2.87;100.00;97297.88;5038222;28;20081;-49
2021/04/14 06:10:20;;;;;;;12.68;7.93;;;;;;;2.87;100.00;97298.72;5036606;28;20095;-50
2021/04/14 06:12:48;;;;;;;11.75;8.65;;;;;;;2.89;100.00;97301.22;5026598;28;20092;-51
2021/04/14 06:15:20;;;;;;;8.82;7.38;;;;;;;3.05;100.00;97302.97;5040301;28;20100;-51
2021/04/14 06:17:48;;;;;;;9.93;7.38;;;;;;;3.13;100.00;97301.75;5028819;28;20103;-53
2021/04/14 06:20:17;;;;;;;10.38;7.35;;;;;;;3.22;100.00;97303.91;5029359;28;20071;-48
2021/04/14 06:22:45;;;;;;;8.77;6.53;;;;;;;3.40;100.00;97302.09;5029419;28;20450;-47
2021/04/14 06:25:17;;;;;;;11.20;7.50;;;;;;;3.29;100.00;97300.03;5014648;28;20064;-53
2021/04/14 06:27:49;;;;;;;12.77;7.25;;;;;;;3.50;100.00;97295.47;5020623;28;20459;-51
2021/04/14 06:30:19;;;;;;;12.70;7.20;;;;;;;3.52;100.00;97294.47;5039568;28;20088;-54
2021/04/14 06:32:47;;;;;;;8.77;6.60;;;;;;;3.80;100.00;97299.06;5025990;28;20507;-50
2021/04/14 06:35:15;;;;;;;11.65;7.60;;;;;;;4.04;100.00;97291.69;5024210;28;20065;-55
2021/04/14 06:37:43;;;;;;;8.07;5.80;;;;;;;4.26;100.00;97300.94;5031380;28;20073;-52
2021/04/14 06:40:47;;;;;;;8.10;5.70;;;;;;;4.17;100.00;97301.47;5030496;28;20450;-53
2021/04/14 06:43:30;;;;;;;11.07;6.38;;;;;;;4.33;100.00;97301.44;5028328;28;20065;-53
2021/04/14 06:46:00;;;;;;;7.70;5.97;;;;;;;4.27;100.00;97303.47;5031232;28;20488;-53
2021/04/14 06:48:34;;;;;;;12.82;6.28;;;;;;;4.48;100.00;97300.59;5040784;28;20519;-52
2021/04/14 06:51:04;;;;;;;8.02;5.85;;;;;;;4.70;100.00;97302.81;5030580;28;20067;-50
2021/04/14 06:53:37;;;;;;;6.10;5.10;;;;;;;4.93;93.69;97294.50;5037466;28;20070;-53
2021/04/14 06:56:07;;;;;;;9.38;5.13;;;;;;;5.07;100.00;97291.09;5038978;28;20075;-49
2021/04/14 06:58:38;;;;;;;9.02;5.32;;;;;;;5.17;93.50;97302.69;5028085;28;20167;-50
2021/04/14 07:01:07;;;;;;;8.88;5.53;;;;;;;5.41;97.64;97292.53;5033813;28;20089;-51
2021/04/14 07:03:43;;;;;;;5.97;4.53;;;;;;;5.19;94.04;97298.19;5040892;28;20080;-48
2021/04/14 07:06:13;;;;;;;7.07;4.57;;;;;;;5.47;90.72;97294.81;5020798;28;20061;-55
2021/04/14 07:09:05;;;;;;;7.40;4.95;;;;;;;5.10;94.27;97290.91;5026375;28;20072;-53
2021/04/14 07:11:34;;;;;;;7.30;4.57;;;;;;;5.24;96.09;97298.78;5036209;28;20107;-55
2021/04/14 07:14:02;;;;;;;8.32;5.18;;;;;;;5.62;93.71;97294.81;5032272;28;20068;-50
2021/04/14 07:16:46;;;;;;;5.97;4.72;;;;;;;5.71;89.97;97291.59;5032746;28;20076;-51
2021/04/14 07:19:25;;;;;;;8.65;4.78;;;;;;;6.11;88.33;97292.63;5038714;28;20069;-50
2021/04/14 07:21:58;;;;;;;6.80;4.88;;;;;;;5.89;94.51;97295.72;5029351;28;20282;-55
2021/04/14 07:24:30;;;;;;;7.80;4.90;;;;;;;5.70;91.21;97295.16;5030293;28;20092;-47
2021/04/14 07:27:04;;;;;;;8.15;4.70;;;;;;;6.23;83.16;97292.78;5028926;28;20073;-52
2021/04/14 07:29:35;;;;;;;6.95;4.53;;;;;;;6.38;83.55;97286.56;5037644;28;20202;-48
2021/04/14 07:32:11;;;;;;;7.50;4.75;;;;;;;6.16;89.42;97305.44;5026750;28;20484;-47
2021/04/14 07:34:49;;;;;;;7.80;4.70;;;;;;;6.23;83.20;97291.03;5032163;28;20421;-48
2021/04/14 07:37:23;;;;;;;6.95;4.95;;;;;;;5.90;85.05;97297.38;5033273;28;20435;-49
2021/04/14 07:39:55;;;;;;;5.45;4.50;;;;;;;6.39;81.46;97296.09;5026850;28;20077;-48
2021/04/14 07:42:25;;;;;;;5.57;4.88;;;;;;;6.40;80.51;97300.41;5031062;28;20516;-56
2021/04/14 07:45:08;;;;;;;5.57;4.95;;;;;;;6.17;81.14;97297.47;5040138;28;20064;-53
2021/04/14 07:47:40;;;;;;;8.90;4.70;;;;;;;6.36;79.75;97299.75;5024433;28;20083;-47
2021/04/14 07:50:08;;;;;;;5.55;4.25;;;;;;;6.64;78.67;97297.97;5037348;28;20065;-51
2021/04/14 07:52:36;;;;;;;8.43;5.00;;;;;;;6.38;81.47;97297.91;5031013;28;20064;-53
2021/04/14 07:55:05;;;;;;;7.80;4.80;;;;;;;6.63;84.86;97293.69;5024331;28;20080;-51
2021/04/14 07:57:34;;;;;;;6.65;4.15;;;;;;;6.93;79.08;97293.47;5034083;28;20081;-54
2021/04/14 08:00:13;;;;;;;6.10;4.22;;;;;;;6.88;82.38;97293.78;5042799;28;20070;-53
2021/04/14 08:02:42;;;;;;;5.45;3.95;;;;;;;7.32;74.08;97291.72;5022879;28;20072;-55
2021/04/14 08:05:17;;;;;;;4.65;3.92;;;;;;;7.42;71.92;97294.56;5035956;28;20076;-47
2021/04/14 08:07:45;;;;;;;8.68;4.57;;;;;;;7.15;75.99;97298.13;5032116;28;20068;-55
2021/04/14 08:10:15;;;;;;;6.55;4.30;;;;;;;7.37;71.35;97292.28;5019147;28;20560;-50
2021/04/14 08:12:56;;;;;;;7.15;4.60;;;;;;;7.55;72.71;97288.38;5020682;28;20083;-53
2021/04/14 08:15:30;;;;;;;7.50;5.07;;;;;;;7.74;68.78;97284.47;5027245;28;20502;-48
2021/04/14 08:18:11;;;;;;;7.43;4.85;;;;;;;8.58;64.30;97278.50;5026714;28;20452;-50
2021/04/14 08:20:41;;;;;;;7.30;5.88;;;;;;;8.84;65.58;97286.25;5016329;28;20071;-48
2021/04/14 08:23:12;;;;;;;8.17;6.77;;;;;;;8.58;62.26;97275.88;5032918;28;20080;-53
2021/04/14 08:25:44;;;;;;;6.88;4.82;;;;;;;7.83;63.45;97273.34;5027412;28;20893;-48
2021/04/14 08:28:13;;;;;;;7.65;4.20;;;;;;;8.53;65.54;97273.59;5025646;28;20452;-50
2021/04/14 08:30:40;;;;;;;8.20;4.82;;;;;;;8.75;62.11;97269.38;5037024;28;20077;-51
2021/04/14 08:33:17;;;;;;;8.00;4.10;;;;;;;9.11;55.54;97270.22;5024438;28;20072;-49
2021/04/14 08:35:51;;;;;;;8.70;4.22;;;;;;;9.16;56.07;97268.94;5018836;28;20065;-57
2021/04/14 08:38:29;;;;;;;6.93;4.30;;;;;;;10.55;51.68;97256.34;5036358;28;20069;-52
2021/04/14 08:40:59;;;;;;;9.05;4.10;;;;;;;9.73;52.12;97256.66;5030876;28;20067;-55
2021/04/14 08:43:32;;;;;;;6.95;4.20;;;;;;;10.18;49.33;97252.19;5024610;28;20061;-54
2021/04/14 08:46:11;;;;;;;6.85;4.07;;;;;;;10.15;53.46;97247.19;5032754;28;20081;-53
2021/04/14 08:48:41;;;;;;;7.00;3.80;;;;;;;9.83;51.42;97251.50;5034603;28;20103;-54
2021/04/14 08:51:10;;;;;;;6.28;3.53;;;;;;;10.86;48.86;97249.38;5018411;28;20085;-48
2021/04/14 08:53:40;;;;;;;5.68;3.60;;;;;;;10.56;60.25;97248.28;5034603;28;20069;-52
2021/04/14 08:56:08;;;;;;;5.97;3.50;;;;;;;9.80;55.45;97244.69;5033550;28;20468;-53
2021/04/14 08:58:36;;;;;;;4.25;3.38;;;;;;;9.60;58.55;97250.66;5029876;28;20060;-54
2021/04/14 09:01:04;;;;;;;4.28;3.35;;;;;;;9.17;65.84;97254.81;5029037;28;20069;-54
2021/04/14 09:03:33;;;;;;;5.07;3.92;;;;;;;10.03;58.70;97247.31;5037742;28;20088;-52
2021/04/14 09:06:02;;;;;;;5.57;3.72;;;;;;;9.98;51.32;97243.25;5022735;28;20105;-53
2021/04/14 09:08:50;;;;;;;5.25;3.60;;;;;;;9.53;51.10;97239.78;5027796;28;20495;-50
2021/04/14 09:11:20;;;;;;;6.90;4.10;;;;;;;9.99;47.45;97244.91;5036079;28;20616;-51
2021/04/14 09:14:01;;;;;;;5.53;3.70;;;;;;;9.85;53.12;97242.53;5026673;28;20062;-56
2021/04/14 09:16:35;;;;;;;5.93;4.00;;;;;;;9.87;48.43;97237.13;5024356;28;20069;-54
2021/04/14 09:19:09;;;;;;;8.18;4.22;;;;;;;8.65;53.96;97249.97;5043812;28;20079;-49
2021/04/14 09:21:48;;;;;;;5.88;4.03;;;;;;;9.22;51.88;97233.41;5030029;28;20084;-52
2021/04/14 09:24:32;;;;;;;5.53;3.95;;;;;;;9.77;50.83;97238.81;5034867;28;20487;-54
2021/04/14 09:27:02;;;;;;;9.73;3.60;;;;;;;8.94;51.90;97239.91;5038583;28;20549;-53
2021/04/14 09:29:46;;;;;;;4.15;3.55;;;;;;;8.53;56.94;97243.81;5024627;28;20069;-55
2021/04/14 09:32:15;;;;;;;5.22;3.08;;;;;;;6.65;80.66;97249.88;5041667;28;20092;-55
2021/04/14 09:34:44;;;;;;;4.50;3.03;;;;;;;6.01;91.39;97260.09;5022603;28;20045;-56
2021/04/14 09:37:29;;;;;;;4.88;3.80;;;;;;;5.97;100.00;97255.16;5021354;28;20470;-56
2021/04/14 09:40:00;;;;;;;5.10;3.47;;;;;;;5.86;89.22;97258.41;5042422;28;20081;-52
2021/04/14 09:42:32;;;;;;;5.57;3.58;;;;;;;5.84;89.86;97245.41;5028703;28;20085;-51
2021/04/14 09:45:18;;;;;;;6.40;4.00;;;;;;;6.17;82.89;97244.25;5034851;28;20066;-51
2021/04/14 09:47:45;;;;;;;4.60;3.70;;;;;;;6.11;80.79;97242.03;5035878;28;20442;-51
2021/04/14 09:50:35;;;;;;;5.75;4.30;;;;;;;6.83;85.72;97240.78;5021621;28;20073;-49
2021/04/14 09:53:07;;;;;;;4.50;3.33;;;;;;;6.63;81.23;97236.03;5024882;28;20661;-53
2021/04/14 09:56:20;;;;;;;7.35;3.58;;;;;;;6.94;81.22;97226.13;5030322;28;20044;-56
2021/04/14 09:58:51;;;;;;;5.65;3.10;;;;;;;7.22;78.22;97227.72;5041226;28;20072;-52
2021/04/14 10:01:22;;;;;;;6.22;3.55;;;;;;;7.03;84.47;97228.97;5024561;28;20068;-54
2021/04/14 10:03:55;;;;;;;5.88;3.47;;;;;;;6.60;79.14;97223.13;5032586;28;20084;-55
2021/04/14 10:06:23;;;;;;;3.30;3.00;;;;;;;7.21;82.39;97224.25;5038860;28;20084;-48
2021/04/14 10:08:58;;;;;;;7.45;3.17;;;;;;;7.35;82.38;97216.28;5028672;28;20073;-52
2021/04/14 10:11:29;;;;;;;5.57;3.15;;;;;;;7.44;78.56;97219.22;5027416;28;20072;-54
2021/04/14 10:13:57;;;;;;;;;;;;;;;7.53;72.44;97206.28;5038289;28;20175;-51
2021/04/14 10:16:26;;;;;;;4.47;3.20;;;;;;;7.63;82.69;97205.63;5025486;28;19960;-46
2021/04/14 10:19:02;;;;;;;4.13;3.45;;;;;;;7.36;72.48;97207.47;5027053;28;20636;-50
2021/04/14 10:21:30;;;;;;;4.07;2.90;;;;;;;7.60;73.13;97199.69;5035462;28;20125;-50
2021/04/14 10:24:02;;;;;;;4.63;3.42;;;;;;;7.13;75.16;97202.97;5018571;28;20425;-49
2021/04/14 10:26:33;;;;;;;6.00;3.13;;;;;;;7.44;73.45;97195.59;5035318;28;21076;-47
2021/04/14 10:29:01;;;;;;;4.80;3.30;;;;;;;8.15;71.08;97194.88;5032626;28;20508;-50
2021/04/14 10:31:30;;;;;;;5.25;3.50;;;;;;;8.03;68.37;97188.72;5028428;28;20069;-52
2021/04/14 10:34:07;;;;;;;4.00;2.83;;;;;;;8.24;68.09;97181.06;5031401;28;20069;-50
2021/04/14 10:36:38;;;;;;;7.40;3.05;;;;;;;8.13;65.54;97186.28;5041968;28;20087;-53
2021/04/14 10:39:11;;;;;;;4.75;3.22;;;;;;;8.01;62.72;97181.91;5014179;28;20065;-48
2021/04/14 10:41:39;;;;;;;6.78;3.42;;;;;;;8.39;65.51;97179.13;5018893;28;20061;-49
2021/04/14 10:44:19;;;;;;;5.35;3.33;;;;;;;8.33;61.35;97177.78;5037263;28;20064;-48
2021/04/14 10:46:47;;;;;;;9.13;3.47;;;;;;;9.02;64.67;97169.16;5028310;28;20440;-49
2021/04/14 10:49:28;;;;;;;6.15;3.47;;;;;;;8.59;59.70;97168.94;5033231;28;20480;-53
2021/04/14 10:51:58;;;;;;;8.38;3.33;;;;;;;9.31;61.02;97166.06;5033876;28;20081;-47
2021/04/14 10:54:31;;;;;;;4.63;3.45;;;;;;;10.50;60.89;97159.16;5021555;28;20084;-52
2021/04/14 10:57:02;;;;;;;4.82;3.10;;;;;;;10.87;61.78;97145.50;5031917;28;20064;-52
2021/04/14 10:59:30;;;;;;;4.45;3.22;;;;;;;11.53;53.66;97147.78;5033994;28;20164;-55
2021/04/14 11:01:58;;;;;;;4.85;3.38;;;;;;;10.44;54.17;97149.09;5030123;28;20079;-55
2021/04/14 11:04:30;;;;;;;4.80;3.30;;;;;;;9.78;53.04;97143.06;5031581;28;20065;-53
2021/04/14 11:07:01;;;;;;;6.88;2.88;;;;;;;10.14;51.56;97145.34;5017743;28;20522;-56
2021/04/14 11:09:32;;;;;;;4.78;3.30;;;;;;;10.23;53.65;97149.88;5029009;28;20100;-55
2021/04/14 11:12:00;;;;;;;5.28;3.28;;;;;;;9.63;59.15;97142.47;5030784;28;20076;-57
2021/04/14 11:14:32;;;;;;;4.25;3.00;;;;;;;9.40;53.91;97144.31;5040394;28;20076;-53
2021/04/14 11:17:00;;;;;;;6.00;3.45;;;;;;;9.36;52.83;97137.56;5029725;28;20072;-56
2021/04/14 11:19:29;;;;;;;4.10;3.00;;;;;;;9.45;50.75;97140.31;5031581;28;20068;-51
2021/04/14 11:22:01;;;;;;;4.90;3.00;;;;;;;9.18;56.79;97145.13;5040894;28;20080;-50
2021/04/14 11:24:29;;;;;;;4.53;3.03;;;;;;;8.94;53.14;97138.16;5026135;28;20088;-53
2021/04/14 11:27:00;;;;;;;6.25;3.25;;;;;;;9.24;53.03;97134.97;5029926;28;20076;-54
2021/04/14 11:29:30;;;;;;;4.15;3.60;;;;;;;9.43;53.72;97134.38;5029236;28;20068;-52
2021/04/14 11:31:59;;;;;;;5.57;3.50;;;;;;;9.66;53.51;97126.41;5026565;28;20072;-54
2021/04/14 11:34:30;;;;;;;5.35;3.25;;;;;;;8.74;51.57;97129.19;5034572;28;20468;-51
2021/04/14 11:37:00;;;;;;;4.95;3.33;;;;;;;8.51;50.92;97130.91;5038432;28;20088;-52
2021/04/14 11:39:29;;;;;;;3.63;3.15;;;;;;;8.28;51.87;97139.63;5028221;28;20089;-54
2021/04/14 11:42:09;;;;;;;7.45;3.35;;;;;;;8.16;50.86;97141.41;5027567;28;20079;-57
2021/04/14 11:44:40;;;;;;;5.25;3.08;;;;;;;8.31;50.81;97136.78;5030843;28;20064;-55
2021/04/14 11:47:20;;;;;;;8.60;3.60;;;;;;;7.10;63.35;97133.19;5029363;28;20099;-51
2021/04/14 11:49:47;;;;;;;5.18;3.83;;;;;;;7.00;68.23;97141.81;5016223;28;20060;-54